createdAt,value
2023-01-27T00:02:15.061Z,29.30
2023-01-27T00:04:46.524Z,28.38
2023-01-27T00:07:18.010Z,24.02
2023-01-27T00:09:49.469Z,25.13
2023-01-27T00:12:23.734Z,27.48
2023-01-27T00:14:55.134Z,19.17
2023-01-27T00:17:26.543Z,15.43
2023-01-27T00:19:58.203Z,12.30
2023-01-27T00:22:29.726Z,12.95
2023-01-27T00:25:01.146Z,16.23
2023-01-27T00:27:33.656Z,17.77
2023-01-27T00:30:07.447Z,13.40
2023-01-27T00:32:38.918Z,11.00
2023-01-27T00:35:10.326Z,12.52
2023-01-27T00:37:42.404Z,10.73
2023-01-27T00:40:15.711Z,14.73
2023-01-27T00:42:47.194Z,21.90
2023-01-27T00:45:18.622Z,21.13
2023-01-27T00:47:50.399Z,14.18
2023-01-27T00:50:21.869Z,13.40
2023-01-27T00:52:53.269Z,13.57
2023-01-27T00:55:24.767Z,14.85
2023-01-27T00:57:56.270Z,16.63
2023-01-27T01:00:27.745Z,13.75
2023-01-27T01:02:59.258Z,13.73
2023-01-27T01:05:30.746Z,18.17
2023-01-27T01:08:02.339Z,9.93
2023-01-27T01:10:33.821Z,13.45
2023-01-27T01:13:06.462Z,15.10
2023-01-27T01:15:39.248Z,11.10
2023-01-27T01:18:11.641Z,12.82
2023-01-27T01:20:45.664Z,12.17
2023-01-27T01:23:17.103Z,12.13
2023-01-27T01:25:56.570Z,11.40
2023-01-27T01:28:28.006Z,11.33
2023-01-27T01:31:11.689Z,14.07
2023-01-27T01:33:43.155Z,13.10
2023-01-27T01:36:17.756Z,9.65
2023-01-27T01:38:49.334Z,12.77
2023-01-27T01:41:20.921Z,13.50
2023-01-27T01:43:52.780Z,11.27
2023-01-27T01:46:24.236Z,8.63
2023-01-27T01:49:01.003Z,10.13
2023-01-27T01:51:41.467Z,12.32
2023-01-27T01:54:18.100Z,8.52
2023-01-27T01:56:57.963Z,12.00
2023-01-27T01:59:33.762Z,11.18
2023-01-27T02:02:10.371Z,8.88
2023-01-27T02:04:47.029Z,6.78
2023-01-27T02:07:41.697Z,9.73
2023-01-27T02:10:13.706Z,11.48
2023-01-27T02:12:45.583Z,10.68
2023-01-27T02:15:17.904Z,10.57
2023-01-27T02:17:50.079Z,8.03
2023-01-27T02:20:31.031Z,9.95
2023-01-27T02:23:25.610Z,7.97
2023-01-27T02:26:13.533Z,9.82
2023-01-27T02:28:45.073Z,10.73
2023-01-27T02:31:16.590Z,9.23
2023-01-27T02:33:48.386Z,8.70
2023-01-27T02:36:20.039Z,9.75
2023-01-27T02:38:54.772Z,7.43
2023-01-27T02:41:37.664Z,8.75
2023-01-27T02:44:09.390Z,8.93
2023-01-27T02:46:40.942Z,9.48
2023-01-27T02:49:12.343Z,11.85
2023-01-27T02:51:43.764Z,9.95
2023-01-27T02:54:15.246Z,9.70
2023-01-27T02:56:46.747Z,7.53
2023-01-27T02:59:18.298Z,10.02
2023-01-27T03:01:49.844Z,9.20
2023-01-27T03:04:21.320Z,8.77
2023-01-27T03:06:52.753Z,9.30
2023-01-27T03:09:24.774Z,11.70
2023-01-27T03:11:56.258Z,9.43
2023-01-27T03:14:27.775Z,7.97
2023-01-27T03:16:59.368Z,11.52
2023-01-27T03:19:30.789Z,9.80
2023-01-27T03:22:02.211Z,12.07
2023-01-27T03:24:33.629Z,8.63
2023-01-27T03:27:05.034Z,10.55
2023-01-27T03:29:36.490Z,10.70
2023-01-27T03:32:07.956Z,15.10
2023-01-27T03:34:39.391Z,11.63
2023-01-27T03:37:10.814Z,11.00
2023-01-27T03:39:42.240Z,14.27
2023-01-27T03:42:13.674Z,13.30
2023-01-27T03:44:45.072Z,13.10
2023-01-27T03:47:16.531Z,9.82
2023-01-27T03:49:48.025Z,14.57
2023-01-27T03:52:19.449Z,12.68
2023-01-27T03:54:50.995Z,10.60
2023-01-27T03:57:22.458Z,10.20
2023-01-27T03:59:53.984Z,9.98
2023-01-27T04:02:25.500Z,10.40
2023-01-27T04:04:56.928Z,10.40
2023-01-27T04:07:28.508Z,9.68
2023-01-27T04:09:59.968Z,10.73
2023-01-27T04:12:31.365Z,9.27
2023-01-27T04:15:02.936Z,8.88
2023-01-27T04:17:34.379Z,8.85
2023-01-27T04:20:06.246Z,8.18
2023-01-27T04:22:37.673Z,9.05
2023-01-27T04:25:11.643Z,9.90
2023-01-27T04:27:44.407Z,10.68
2023-01-27T04:30:16.189Z,8.73
2023-01-27T04:32:47.623Z,10.35
2023-01-27T04:35:21.534Z,9.85
2023-01-27T04:37:54.763Z,11.25
2023-01-27T04:40:26.172Z,12.17
2023-01-27T04:42:57.675Z,10.23
2023-01-27T04:45:29.151Z,9.53
2023-01-27T04:48:00.710Z,11.13
2023-01-27T04:50:32.923Z,10.52
2023-01-27T04:53:04.411Z,9.30
2023-01-27T04:55:35.898Z,9.57
2023-01-27T04:58:07.366Z,8.13
2023-01-27T05:00:38.770Z,7.30
2023-01-27T05:03:10.659Z,10.57
2023-01-27T05:05:42.120Z,9.98
2023-01-27T05:08:13.562Z,6.72
2023-01-27T05:10:45.180Z,6.70
2023-01-27T05:13:16.611Z,6.83
2023-01-27T05:15:48.200Z,6.32
2023-01-27T05:18:19.697Z,6.47
2023-01-27T05:20:51.584Z,6.88
2023-01-27T05:23:23.735Z,7.55
2023-01-27T05:25:55.182Z,7.72
2023-01-27T05:28:28.276Z,7.72
2023-01-27T05:31:05.589Z,7.22
2023-01-27T05:33:37.048Z,7.10
2023-01-27T05:36:11.849Z,7.38
2023-01-27T05:38:43.517Z,6.68
2023-01-27T05:41:16.467Z,6.05
2023-01-27T05:43:52.488Z,5.68
2023-01-27T05:46:26.796Z,5.40
2023-01-27T05:49:03.293Z,5.78
2023-01-27T05:51:37.596Z,6.05
2023-01-27T05:54:09.738Z,3.38
2023-01-27T05:56:41.343Z,3.97
2023-01-27T05:59:12.824Z,2.87
2023-01-27T06:01:44.303Z,2.72
2023-01-27T06:04:15.724Z,2.72
2023-01-27T06:06:47.187Z,3.72
2023-01-27T06:09:19.757Z,3.15
2023-01-27T06:11:51.262Z,3.50
2023-01-27T06:14:22.667Z,2.28
2023-01-27T06:16:54.075Z,2.67
2023-01-27T06:19:25.529Z,3.40
2023-01-27T06:21:56.964Z,2.65
2023-01-27T06:24:28.518Z,2.65
2023-01-27T06:27:00.007Z,2.75
2023-01-27T06:29:31.459Z,3.88
2023-01-27T06:32:03.682Z,2.67
2023-01-27T06:34:35.162Z,3.85
2023-01-27T06:37:06.589Z,3.28
2023-01-27T06:39:38.046Z,3.13
2023-01-27T06:42:09.483Z,3.53
2023-01-27T06:44:40.875Z,2.50
2023-01-27T06:47:12.279Z,3.13
2023-01-27T06:49:43.906Z,3.08
2023-01-27T06:52:15.413Z,3.37
2023-01-27T06:54:46.831Z,3.83
2023-01-27T06:57:18.304Z,3.67
2023-01-27T06:59:49.761Z,3.30
2023-01-27T07:02:21.285Z,3.83
2023-01-27T07:04:52.787Z,4.10
2023-01-27T07:07:24.249Z,2.90
2023-01-27T07:09:55.692Z,4.43
2023-01-27T07:12:27.083Z,1.83
2023-01-27T07:14:58.541Z,4.88
2023-01-27T07:17:30.039Z,3.22
2023-01-27T07:20:01.983Z,4.20
2023-01-27T07:22:34.202Z,4.45
2023-01-27T07:25:06.045Z,3.37
2023-01-27T07:27:37.492Z,3.03
2023-01-27T07:30:09.542Z,4.47
2023-01-27T07:32:41.009Z,3.38
2023-01-27T07:35:12.491Z,3.88
2023-01-27T07:37:44.318Z,4.50
2023-01-27T07:40:16.201Z,2.55
2023-01-27T07:42:47.862Z,3.88
2023-01-27T07:45:19.263Z,3.97
2023-01-27T07:47:50.742Z,3.70
2023-01-27T07:50:22.213Z,4.28
2023-01-27T07:52:53.663Z,3.17
2023-01-27T07:55:25.262Z,2.60
2023-01-27T07:57:57.615Z,3.13
2023-01-27T08:00:29.513Z,2.20
2023-01-27T08:03:02.636Z,4.95
2023-01-27T08:05:35.110Z,4.78
2023-01-27T08:08:06.601Z,3.17
2023-01-27T08:10:38.023Z,3.55
2023-01-27T08:13:09.512Z,2.67
2023-01-27T08:15:41.078Z,2.53
2023-01-27T08:18:12.560Z,4.32
2023-01-27T08:20:45.902Z,2.67
2023-01-27T08:23:17.582Z,3.15
2023-01-27T08:25:53.411Z,4.43
2023-01-27T08:28:26.418Z,2.58
2023-01-27T08:31:09.754Z,5.05
2023-01-27T08:33:42.111Z,3.17
2023-01-27T08:36:16.259Z,3.10
2023-01-27T08:38:47.689Z,4.05
2023-01-27T08:41:22.314Z,4.45
2023-01-27T08:43:54.913Z,3.97
2023-01-27T08:46:26.404Z,3.92
2023-01-27T08:48:57.982Z,5.25
2023-01-27T08:51:29.551Z,4.63
2023-01-27T08:54:01.027Z,3.42
2023-01-27T08:56:32.723Z,3.30
2023-01-27T08:59:04.225Z,4.40
2023-01-27T09:01:35.757Z,3.10
2023-01-27T09:04:07.671Z,3.03
2023-01-27T09:06:39.260Z,2.90
2023-01-27T09:09:11.950Z,2.38
2023-01-27T09:11:45.291Z,2.78
2023-01-27T09:14:16.702Z,3.77
2023-01-27T09:16:48.164Z,4.50
2023-01-27T09:19:19.620Z,6.17
2023-01-27T09:21:51.046Z,4.20
2023-01-27T09:24:23.034Z,3.43
2023-01-27T09:26:54.560Z,3.20
2023-01-27T09:29:26.138Z,2.85
2023-01-27T09:31:57.650Z,3.33
2023-01-27T09:34:29.887Z,3.03
2023-01-27T09:37:10.063Z,5.70
2023-01-27T09:39:51.319Z,4.55
2023-01-27T09:42:46.237Z,4.50
2023-01-27T09:45:57.735Z,2.83
2023-01-27T09:48:51.712Z,2.83
2023-01-27T09:51:41.806Z,2.20
2023-01-27T09:54:22.279Z,3.75
2023-01-27T09:57:09.538Z,4.80
2023-01-27T09:59:53.341Z,2.65
2023-01-27T10:02:33.944Z,3.93
2023-01-27T10:05:28.530Z,3.65
2023-01-27T10:08:14.973Z,3.53
2023-01-27T10:11:07.633Z,4.13
2023-01-27T10:13:51.375Z,3.70
2023-01-27T10:16:44.801Z,2.80
2023-01-27T10:19:48.971Z,2.40
2023-01-27T10:22:41.597Z,5.50
2023-01-27T10:25:48.639Z,2.95
2023-01-27T10:28:24.527Z,2.50
2023-01-27T10:31:08.592Z,2.28
2023-01-27T10:33:56.211Z,4.07
2023-01-27T10:36:33.922Z,2.53
2023-01-27T10:39:32.719Z,2.72
2023-01-27T10:42:22.173Z,3.23
2023-01-27T10:44:53.594Z,2.42
2023-01-27T10:47:51.243Z,1.90
2023-01-27T10:50:43.249Z,1.95
2023-01-27T10:53:21.461Z,2.35
2023-01-27T10:55:56.718Z,1.80
2023-01-27T10:58:48.094Z,1.70
2023-01-27T11:01:26.698Z,1.73
2023-01-27T11:04:30.968Z,1.20
2023-01-27T11:07:05.323Z,1.63
2023-01-27T11:09:43.778Z,1.85
2023-01-27T11:12:16.250Z,4.53
2023-01-27T11:14:50.710Z,1.55
2023-01-27T11:17:28.274Z,0.75
2023-01-27T11:20:18.240Z,2.00
2023-01-27T11:23:13.866Z,0.98
2023-01-27T11:26:00.562Z,1.50
2023-01-27T11:28:43.006Z,1.63
2023-01-27T11:31:34.695Z,3.45
2023-01-27T11:34:13.887Z,1.17
2023-01-27T11:36:47.278Z,1.30
2023-01-27T11:39:20.596Z,1.37
2023-01-27T11:41:55.399Z,1.35
2023-01-27T11:44:31.756Z,1.45
2023-01-27T11:47:06.355Z,1.98
2023-01-27T11:49:44.144Z,0.68
2023-01-27T11:52:19.814Z,0.82
2023-01-27T11:54:57.731Z,1.30
2023-01-27T11:57:29.179Z,1.52
2023-01-27T12:00:10.469Z,1.63
2023-01-27T12:02:45.100Z,1.83
2023-01-27T12:05:30.285Z,2.35
2023-01-27T12:08:03.550Z,1.30
2023-01-27T12:10:37.643Z,0.90
2023-01-27T12:13:24.820Z,2.25
2023-01-27T12:16:03.320Z,2.53
2023-01-27T12:18:46.710Z,1.20
2023-01-27T12:21:18.728Z,0.75
2023-01-27T12:23:53.974Z,0.80
2023-01-27T12:26:35.626Z,3.05
2023-01-27T12:29:16.530Z,1.77
2023-01-27T12:31:51.570Z,0.90
2023-01-27T12:34:25.587Z,1.33
2023-01-27T12:36:58.603Z,0.70
2023-01-27T12:39:32.663Z,0.80
2023-01-27T12:42:04.360Z,1.90
2023-01-27T12:44:42.728Z,0.77
2023-01-27T12:47:26.935Z,0.93
2023-01-27T12:50:21.727Z,2.35
2023-01-27T12:53:12.826Z,1.40
2023-01-27T12:56:11.392Z,4.38
2023-01-27T12:58:54.857Z,2.55
2023-01-27T13:01:27.998Z,2.40
2023-01-27T13:04:21.545Z,1.17
2023-01-27T13:07:02.178Z,0.73
2023-01-27T13:09:48.212Z,1.42
2023-01-27T13:12:25.028Z,1.05
2023-01-27T13:15:15.181Z,0.95
2023-01-27T13:17:51.718Z,2.50
2023-01-27T13:20:39.904Z,0.80
2023-01-27T13:23:21.983Z,1.85
2023-01-27T13:26:08.176Z,0.68
2023-01-27T13:28:53.416Z,1.10
2023-01-27T13:31:35.601Z,1.67
2023-01-27T13:34:24.806Z,1.48
2023-01-27T13:37:23.113Z,1.80
2023-01-27T13:40:06.604Z,1.45
2023-01-27T13:43:00.253Z,3.03
2023-01-27T13:45:40.634Z,2.25
2023-01-27T13:48:24.308Z,1.45
2023-01-27T13:51:06.620Z,1.17
2023-01-27T13:53:38.934Z,1.63
2023-01-27T13:56:19.642Z,2.78
2023-01-27T13:59:05.529Z,2.20
2023-01-27T14:01:48.298Z,1.45
2023-01-27T14:04:44.662Z,1.87
2023-01-27T14:07:41.303Z,2.40
2023-01-27T14:10:18.501Z,1.23
2023-01-27T14:13:33.113Z,0.93
2023-01-27T14:16:13.214Z,1.13
2023-01-27T14:19:00.644Z,1.23
2023-01-27T14:21:49.304Z,2.03
2023-01-27T14:24:33.828Z,1.23
2023-01-27T14:27:14.132Z,1.13
2023-01-27T14:29:48.555Z,2.22
2023-01-27T14:32:35.921Z,2.42
2023-01-27T14:35:38.958Z,0.70
2023-01-27T14:38:32.183Z,0.80
2023-01-27T14:41:29.915Z,1.27
2023-01-27T14:44:04.262Z,1.17
2023-01-27T14:46:44.366Z,2.63
2023-01-27T14:49:47.771Z,1.10
2023-01-27T14:52:47.447Z,1.33
2023-01-27T14:55:31.328Z,1.20
2023-01-27T14:58:32.161Z,2.10
2023-01-27T15:01:18.485Z,3.08
2023-01-27T15:03:55.849Z,1.80
2023-01-27T15:06:56.499Z,2.03
2023-01-27T15:09:49.681Z,1.92
2023-01-27T15:12:51.098Z,1.50
2023-01-27T15:15:40.822Z,2.45
2023-01-27T15:18:24.124Z,1.15
2023-01-27T15:21:16.846Z,1.57
2023-01-27T15:24:02.963Z,1.48
2023-01-27T15:26:36.754Z,1.63
2023-01-27T15:29:13.874Z,1.88
2023-01-27T15:32:13.476Z,2.50
2023-01-27T15:34:51.076Z,1.20
2023-01-27T15:37:27.177Z,3.40
2023-01-27T15:40:05.607Z,1.63
2023-01-27T15:42:50.536Z,1.93
2023-01-27T15:45:36.580Z,2.25
2023-01-27T15:48:08.032Z,2.67
2023-01-27T15:50:46.693Z,2.10
2023-01-27T15:53:31.318Z,1.73
2023-01-27T15:56:04.447Z,4.15
2023-01-27T15:58:41.734Z,1.93
2023-01-27T16:01:30.825Z,1.90
2023-01-27T16:04:18.430Z,1.90
2023-01-27T16:07:04.865Z,1.90
2023-01-27T16:09:42.326Z,1.98
2023-01-27T16:12:20.129Z,3.23
2023-01-27T16:15:00.794Z,1.77
2023-01-27T16:17:33.239Z,2.60
2023-01-27T16:20:13.633Z,2.10
2023-01-27T16:22:51.639Z,4.30
2023-01-27T16:25:45.341Z,3.45
2023-01-27T16:28:33.427Z,2.88
2023-01-27T16:31:12.637Z,3.03
2023-01-27T16:33:47.642Z,2.85
2023-01-27T16:36:29.658Z,2.65
2023-01-27T16:39:25.665Z,3.85
2023-01-27T16:41:59.792Z,3.95
2023-01-27T16:44:47.160Z,4.13
2023-01-27T16:47:26.209Z,3.53
2023-01-27T16:49:57.768Z,3.55
2023-01-27T16:52:42.176Z,2.23
2023-01-27T16:55:20.947Z,2.85
2023-01-27T16:57:54.468Z,3.45
2023-01-27T17:00:32.817Z,2.03
2023-01-27T17:03:13.425Z,2.55
2023-01-27T17:05:51.441Z,2.33
2023-01-27T17:08:27.843Z,2.87
2023-01-27T17:11:30.295Z,1.60
2023-01-27T17:14:28.703Z,2.53
2023-01-27T17:17:04.114Z,2.08
2023-01-27T17:19:37.561Z,2.47
2023-01-27T17:22:35.021Z,1.92
2023-01-27T17:25:16.129Z,2.70
2023-01-27T17:27:48.089Z,2.15
2023-01-27T17:30:22.720Z,2.90
2023-01-27T17:33:02.383Z,3.75
2023-01-27T17:35:36.865Z,2.08
2023-01-27T17:38:21.798Z,2.78
2023-01-27T17:40:55.091Z,2.20
2023-01-27T17:43:39.256Z,2.65
2023-01-27T17:46:10.739Z,2.65
2023-01-27T17:48:47.188Z,2.30
2023-01-27T17:51:22.447Z,3.35
2023-01-27T17:53:54.664Z,2.53
2023-01-27T17:56:28.925Z,2.25
2023-01-27T17:59:06.402Z,2.45
2023-01-27T18:01:38.444Z,2.35
2023-01-27T18:04:10.812Z,3.33
2023-01-27T18:06:42.892Z,3.20
2023-01-27T18:09:25.816Z,3.15
2023-01-27T18:12:04.549Z,2.58
2023-01-27T18:14:35.979Z,2.60
2023-01-27T18:17:26.181Z,3.53
2023-01-27T18:19:57.659Z,2.53
2023-01-27T18:22:29.103Z,2.25
2023-01-27T18:25:02.811Z,2.80
2023-01-27T18:27:36.932Z,2.23
2023-01-27T18:30:16.736Z,2.63
2023-01-27T18:32:53.190Z,2.40
2023-01-27T18:35:33.952Z,2.90
2023-01-27T18:38:25.587Z,2.28
2023-01-27T18:41:09.113Z,2.57
2023-01-27T18:43:40.583Z,3.13
2023-01-27T18:46:12.083Z,2.28
2023-01-27T18:48:43.580Z,2.60
2023-01-27T18:51:16.234Z,3.00
2023-01-27T18:53:47.656Z,2.27
2023-01-27T18:56:19.101Z,2.70
2023-01-27T18:58:50.533Z,2.53
2023-01-27T19:01:23.546Z,2.63
2023-01-27T19:03:55.092Z,2.35
2023-01-27T19:06:26.605Z,2.67
2023-01-27T19:08:58.059Z,2.75
2023-01-27T19:11:29.510Z,3.03
2023-01-27T19:14:00.964Z,3.00
2023-01-27T19:16:32.632Z,2.78
2023-01-27T19:19:04.152Z,3.43
2023-01-27T19:21:35.583Z,2.97
2023-01-27T19:24:10.558Z,3.20
2023-01-27T19:26:42.468Z,3.15
2023-01-27T19:29:13.911Z,3.80
2023-01-27T19:31:45.326Z,3.22
2023-01-27T19:34:16.720Z,2.97
2023-01-27T19:36:48.182Z,3.70
2023-01-27T19:39:19.861Z,2.93
2023-01-27T19:41:51.347Z,3.70
2023-01-27T19:44:22.863Z,3.40
2023-01-27T19:46:54.400Z,3.95
2023-01-27T19:49:25.864Z,4.20
2023-01-27T19:51:57.307Z,4.28
2023-01-27T19:54:28.734Z,4.05
2023-01-27T19:57:00.278Z,4.70
2023-01-27T19:59:31.841Z,4.10
2023-01-27T20:02:03.302Z,4.43
2023-01-27T20:04:34.903Z,5.57
2023-01-27T20:07:06.342Z,6.07
2023-01-27T20:09:37.842Z,5.28
2023-01-27T20:12:16.267Z,5.57
2023-01-27T20:14:47.805Z,5.30
2023-01-27T20:17:19.220Z,4.82
2023-01-27T20:19:50.672Z,4.75
2023-01-27T20:22:22.070Z,4.63
2023-01-27T20:24:53.542Z,4.28
2023-01-27T20:27:24.989Z,4.70
2023-01-27T20:29:56.593Z,5.03
2023-01-27T20:32:28.054Z,5.13
2023-01-27T20:34:59.529Z,5.10
2023-01-27T20:37:30.945Z,5.90
2023-01-27T20:40:02.405Z,5.47
2023-01-27T20:42:33.903Z,6.07
2023-01-27T20:45:06.160Z,6.60
2023-01-27T20:47:37.658Z,6.38
2023-01-27T20:50:10.164Z,8.07
2023-01-27T20:52:41.585Z,8.20
2023-01-27T20:55:14.407Z,9.45
2023-01-27T20:57:47.162Z,9.67
2023-01-27T21:00:20.710Z,9.90
2023-01-27T21:02:52.174Z,9.40
2023-01-27T21:05:23.637Z,9.40
2023-01-27T21:07:55.121Z,9.25
2023-01-27T21:10:26.568Z,10.30
2023-01-27T21:12:57.980Z,9.45
2023-01-27T21:15:29.843Z,10.25
2023-01-27T21:18:01.255Z,10.32
2023-01-27T21:20:32.679Z,10.65
2023-01-27T21:23:04.175Z,10.13
2023-01-27T21:25:38.533Z,10.52
2023-01-27T21:28:09.950Z,10.40
2023-01-27T21:30:41.863Z,10.50
2023-01-27T21:33:13.871Z,10.60
2023-01-27T21:35:45.322Z,10.88
2023-01-27T21:38:16.768Z,10.90
2023-01-27T21:40:48.184Z,10.07
2023-01-27T21:43:19.659Z,10.67
2023-01-27T21:45:58.383Z,11.35
2023-01-27T21:48:29.792Z,10.95
2023-01-27T21:51:01.242Z,11.45
2023-01-27T21:53:32.703Z,10.20
2023-01-27T21:56:08.824Z,10.80
2023-01-27T21:58:40.286Z,11.20
2023-01-27T22:01:11.737Z,11.13
2023-01-27T22:03:43.260Z,11.57
2023-01-27T22:06:14.670Z,11.25
2023-01-27T22:08:50.068Z,11.98
2023-01-27T22:11:21.463Z,11.68
2023-01-27T22:13:52.913Z,12.43
2023-01-27T22:16:24.393Z,11.88
2023-01-27T22:18:55.843Z,10.95
2023-01-27T22:21:27.335Z,11.15
2023-01-27T22:23:58.873Z,11.18
2023-01-27T22:26:30.417Z,11.57
2023-01-27T22:29:01.986Z,11.52
2023-01-27T22:31:33.708Z,11.95
2023-01-27T22:34:05.224Z,10.82
2023-01-27T22:36:37.063Z,11.85
2023-01-27T22:39:08.615Z,12.10
2023-01-27T22:41:40.138Z,11.90
2023-01-27T22:44:14.991Z,11.40
2023-01-27T22:46:48.861Z,13.25
2023-01-27T22:49:20.352Z,11.70
2023-01-27T22:51:51.892Z,11.07
2023-01-27T22:54:23.588Z,11.60
2023-01-27T22:56:55.069Z,11.90
2023-01-27T22:59:26.592Z,12.88
2023-01-27T23:01:58.092Z,11.40
2023-01-27T23:04:29.580Z,12.50
2023-01-27T23:07:01.317Z,12.07
2023-01-27T23:09:32.843Z,12.20
2023-01-27T23:12:04.611Z,13.15
2023-01-27T23:14:36.131Z,12.05
2023-01-27T23:17:07.695Z,11.88
2023-01-27T23:19:39.246Z,11.68
2023-01-27T23:22:10.981Z,13.93
2023-01-27T23:24:42.480Z,14.03
2023-01-27T23:27:13.990Z,13.05
2023-01-27T23:29:45.508Z,13.23
2023-01-27T23:32:17.022Z,13.40
2023-01-27T23:34:48.540Z,12.80
2023-01-27T23:37:20.083Z,13.73
2023-01-27T23:39:51.572Z,13.55
2023-01-27T23:42:23.154Z,13.15
2023-01-27T23:44:54.705Z,12.57
2023-01-27T23:47:26.203Z,13.38
2023-01-27T23:49:57.688Z,13.33
2023-01-27T23:52:29.212Z,12.75
2023-01-27T23:55:00.874Z,13.45
2023-01-27T23:57:32.410Z,13.43
